createdAt,value
2016-03-12T14:26:00.325Z,452
2016-03-12T14:27:00.596Z,452
2016-03-12T14:28:00.584Z,460
2016-03-12T14:29:00.560Z,464
2016-03-12T14:30:00.574Z,456
2016-03-12T14:31:00.556Z,436
2016-03-12T14:32:00.585Z,424
2016-03-12T14:33:00.567Z,412
2016-03-12T14:34:00.566Z,412
2016-03-12T14:35:00.629Z,436
2016-03-12T14:35:59.849Z,464
2016-03-12T14:37:00.599Z,460
2016-03-12T14:38:00.584Z,448
2016-03-12T14:39:00.602Z,456
2016-03-12T14:40:00.620Z,444
2016-03-12T14:41:00.636Z,440
2016-03-12T14:42:00.685Z,472
2016-03-12T14:43:00.640Z,528
2016-03-12T14:44:00.658Z,576
2016-03-12T14:45:00.692Z,584
2016-03-12T14:46:00.695Z,584
2016-03-12T14:47:00.697Z,556
2016-03-12T14:48:00.762Z,524
2016-03-12T14:49:00.764Z,500
2016-03-12T14:50:00.735Z,492
2016-03-12T14:51:00.738Z,496
2016-03-12T14:52:00.788Z,508
2016-03-12T14:53:00.759Z,512
2016-03-12T14:54:00.793Z,528
2016-03-12T14:55:00.796Z,576
2016-03-12T14:56:00.673Z,612
2016-03-12T14:57:00.817Z,648
2016-03-12T14:58:00.820Z,664
2016-03-12T14:59:00.837Z,668
2016-03-12T15:00:00.856Z,672
2016-03-12T15:01:00.875Z,664
2016-03-12T15:02:00.752Z,640
2016-03-12T15:03:00.910Z,656
2016-03-12T15:04:00.897Z,664
2016-03-12T15:05:00.947Z,644
2016-03-12T15:06:00.935Z,636
2016-03-12T15:07:00.952Z,636
2016-03-12T15:08:00.941Z,640
2016-03-12T15:09:00.989Z,640
2016-03-12T15:10:00.866Z,644
2016-03-12T15:11:01.010Z,648
2016-03-12T15:12:01.044Z,644
2016-03-12T15:13:01.032Z,624
2016-03-12T15:14:00.877Z,620
2016-03-12T15:15:01.068Z,620
2016-03-12T15:16:00.915Z,628
2016-03-12T15:17:01.089Z,624
2016-03-12T15:18:01.093Z,624
2016-03-12T15:19:01.126Z,604
2016-03-12T15:20:01.129Z,576
2016-03-12T15:21:01.131Z,552
2016-03-12T15:22:01.149Z,548
2016-03-12T15:23:01.184Z,552
2016-03-12T15:24:01.217Z,552
2016-03-12T15:25:01.376Z,544
2016-03-12T15:26:01.206Z,540
2016-03-12T15:27:01.210Z,548
2016-03-12T15:28:01.244Z,556
2016-03-12T15:29:01.247Z,524
2016-03-12T15:30:01.250Z,496
2016-03-12T15:31:01.283Z,488
2016-03-12T15:32:01.286Z,472
2016-03-12T15:33:01.319Z,456
2016-03-12T15:34:01.306Z,444
2016-03-12T15:35:01.341Z,444
2016-03-12T15:36:01.187Z,428
2016-03-12T15:37:01.361Z,408
2016-03-12T15:38:01.380Z,376
2016-03-12T15:39:01.383Z,340
2016-03-12T15:40:01.385Z,328
2016-03-12T15:41:01.435Z,320
2016-03-12T15:42:01.438Z,324
2016-03-12T15:43:01.424Z,328
2016-03-12T15:44:01.302Z,332
2016-03-12T15:45:01.477Z,308
2016-03-12T15:46:01.355Z,292
2016-03-12T15:47:01.498Z,292
2016-03-12T15:48:01.516Z,288
2016-03-12T15:49:01.519Z,272
2016-03-12T15:50:01.537Z,256
2016-03-12T15:51:01.556Z,248
2016-03-12T15:52:01.573Z,256
2016-03-12T15:53:01.577Z,264
2016-03-12T15:54:01.439Z,292
2016-03-12T15:55:01.613Z,312
2016-03-12T15:56:01.616Z,308
2016-03-12T15:57:01.650Z,296
2016-03-12T15:58:01.496Z,288
2016-03-12T15:59:01.655Z,276
2016-03-12T16:00:01.517Z,272
2016-03-12T16:01:01.723Z,280
2016-03-12T16:02:01.554Z,292
2016-03-12T16:03:01.744Z,308
2016-03-12T16:04:01.747Z,320
2016-03-12T16:05:01.750Z,308
2016-03-12T16:06:01.611Z,280
2016-03-12T16:07:01.802Z,260
2016-03-12T16:08:01.633Z,260
2016-03-12T16:09:01.822Z,260
2016-03-12T16:10:01.794Z,252
2016-03-12T16:11:01.828Z,232
2016-03-12T16:12:01.830Z,208
2016-03-12T16:13:01.849Z,180
2016-03-12T16:14:01.726Z,176
2016-03-12T16:15:01.933Z,176
2016-03-12T16:16:01.748Z,176
2016-03-12T16:17:01.922Z,156
2016-03-12T16:18:01.925Z,140
2016-03-12T16:19:01.959Z,136
2016-03-12T16:20:01.962Z,152
2016-03-12T16:21:01.996Z,152
2016-03-12T16:22:01.810Z,148
2016-03-12T16:23:02.017Z,144
2016-03-12T16:24:01.988Z,136
2016-03-12T16:25:02.038Z,140
2016-03-12T16:26:02.009Z,128
2016-03-12T16:27:02.043Z,124
2016-03-12T16:28:02.061Z,132
2016-03-12T16:29:02.096Z,132
2016-03-12T16:30:02.098Z,128
2016-03-12T16:31:02.084Z,124
2016-03-12T16:32:02.119Z,120
2016-03-12T16:33:02.137Z,104
2016-03-12T16:34:02.140Z,92
2016-03-12T16:35:02.158Z,84
2016-03-12T16:36:02.192Z,84
2016-03-12T16:37:02.211Z,88
2016-03-12T16:38:02.198Z,84
2016-03-12T16:39:02.200Z,92
2016-03-12T16:40:02.219Z,96
2016-03-12T16:41:02.252Z,92
2016-03-12T16:42:02.256Z,84
2016-03-12T16:43:02.258Z,76
2016-03-12T16:44:02.277Z,68
2016-03-12T16:45:02.279Z,64
2016-03-12T16:46:02.329Z,64
2016-03-12T16:47:02.316Z,64
2016-03-12T16:48:02.318Z,64
2016-03-12T16:49:02.352Z,60
2016-03-12T16:50:02.371Z,48
2016-03-12T16:51:02.452Z,44
2016-03-12T16:52:02.360Z,44
2016-03-12T16:53:02.409Z,44
2016-03-12T16:54:02.382Z,40
2016-03-12T16:55:02.431Z,36
2016-03-12T16:56:02.464Z,36
2016-03-12T16:57:02.437Z,32
2016-03-12T16:58:02.486Z,32
2016-03-12T16:59:02.473Z,28
2016-03-12T17:00:02.492Z,24
2016-03-12T17:01:02.478Z,24
2016-03-12T17:02:02.528Z,24
2016-03-12T17:03:02.531Z,24
2016-03-12T17:04:02.548Z,24
2016-03-12T17:05:02.567Z,24
2016-03-12T17:06:02.554Z,24
2016-03-12T17:07:02.572Z,20
2016-03-12T17:08:02.607Z,20
2016-03-12T17:09:02.609Z,16
2016-03-12T17:10:02.643Z,16
2016-03-12T17:11:02.614Z,20
2016-03-12T17:12:02.727Z,16
2016-03-12T17:13:02.713Z,16
2016-03-12T17:14:02.669Z,16
2016-03-12T17:15:02.672Z,16
2016-03-12T17:16:02.675Z,12
2016-03-12T17:17:02.709Z,12
2016-03-12T17:18:02.711Z,12
2016-03-12T17:19:02.746Z,12
2016-03-12T17:20:02.749Z,8
2016-03-12T17:21:02.751Z,8
2016-03-12T17:22:02.768Z,8
2016-03-12T17:23:02.772Z,4
2016-03-12T17:24:02.790Z,8
2016-03-12T17:25:02.871Z,4
2016-03-12T17:26:02.812Z,4
2016-03-12T17:27:02.876Z,4
2016-03-12T17:28:02.817Z,4
2016-03-12T17:29:02.851Z,4
2016-03-12T17:30:02.931Z,4
2016-03-12T17:31:02.886Z,4
2016-03-12T17:32:02.874Z,0
2016-03-12T17:33:03.017Z,0
2016-03-12T17:34:02.911Z,4
2016-03-12T17:35:02.961Z,4
2016-03-12T17:36:02.947Z,4
2016-03-12T17:37:02.934Z,0
2016-03-12T17:38:02.984Z,0
2016-03-12T17:39:03.002Z,0
2016-03-12T17:40:03.052Z,0
2016-03-12T17:41:03.008Z,0
2016-03-12T17:42:03.025Z,0
2016-03-12T17:43:03.045Z,0
2016-03-12T17:44:03.047Z,0
2016-03-12T17:45:03.049Z,0
2016-03-12T17:46:03.084Z,0
2016-03-12T17:47:03.102Z,0
2016-03-12T17:48:03.104Z,0
2016-03-12T17:49:02.983Z,0
2016-03-12T17:50:03.141Z,0
2016-03-12T17:51:03.129Z,0
2016-03-12T17:52:03.132Z,0
2016-03-12T17:53:03.149Z,0
2016-03-12T17:54:03.245Z,0
2016-03-12T17:55:02.983Z,0
2016-03-12T17:56:03.235Z,0
2016-03-12T17:57:03.206Z,0
2016-03-12T17:58:03.210Z,0
2016-03-12T17:59:03.228Z,0
2016-03-12T18:00:03.246Z,0
2016-03-12T18:01:03.296Z,0
2016-03-12T18:02:03.251Z,0
2016-03-12T18:03:03.301Z,0
2016-03-12T18:04:03.304Z,0
2016-03-12T18:05:03.275Z,0
2016-03-12T18:06:03.325Z,0
2016-03-12T18:07:03.328Z,0
2016-03-12T18:08:03.408Z,0
2016-03-12T18:09:03.349Z,0
2016-03-12T18:10:03.492Z,0
2016-03-12T18:11:03.385Z,0
2016-03-12T18:12:03.403Z,0
2016-03-12T18:13:03.406Z,0
2016-03-12T18:14:03.424Z,0
2016-03-12T18:15:03.443Z,0
2016-03-12T18:16:03.461Z,0
2016-03-12T18:17:03.308Z,0
2016-03-12T18:18:03.482Z,0
2016-03-12T18:19:03.469Z,0
2016-03-12T18:20:03.488Z,0
2016-03-12T18:21:03.522Z,0
2016-03-12T18:22:03.540Z,0
2016-03-12T18:23:03.527Z,0
2016-03-12T18:24:03.545Z,0
2016-03-12T18:25:03.579Z,0
2016-03-12T18:26:03.566Z,0
2016-03-12T18:27:03.585Z,0
2016-03-12T18:28:03.415Z,0
2016-03-12T18:29:03.590Z,0
2016-03-12T18:30:03.608Z,0
2016-03-12T18:31:03.659Z,0
2016-03-12T18:32:03.631Z,0
2016-03-12T18:33:03.650Z,0
2016-03-12T18:34:03.667Z,0
2016-03-12T18:35:03.686Z,0
2016-03-12T18:36:03.705Z,0
2016-03-12T18:37:03.723Z,0
2016-03-12T18:38:03.741Z,0
2016-03-12T18:39:03.759Z,0
2016-03-12T18:40:03.731Z,0
2016-03-12T18:41:03.765Z,0
2016-03-12T18:42:03.752Z,0
2016-03-12T18:43:03.786Z,0
2016-03-12T18:44:03.788Z,0
2016-03-12T18:45:03.807Z,0
2016-03-12T18:46:03.857Z,0
2016-03-12T18:47:03.843Z,0
2016-03-12T18:48:03.846Z,0
2016-03-12T18:49:03.865Z,0
2016-03-12T18:50:03.851Z,0
2016-03-12T18:51:03.871Z,0
2016-03-12T18:52:03.888Z,0
2016-03-12T18:53:03.923Z,0
2016-03-12T18:54:03.909Z,0
2016-03-12T18:55:03.928Z,0
2016-03-12T18:56:03.931Z,0
2016-03-12T18:57:03.949Z,0
2016-03-12T18:58:03.951Z,0
2016-03-12T18:59:03.813Z,0
2016-03-12T19:00:03.987Z,0
2016-03-12T19:01:03.990Z,0
2016-03-12T19:02:03.993Z,0
2016-03-12T19:03:04.012Z,0
2016-03-12T19:04:04.014Z,0
2016-03-12T19:05:04.033Z,0
2016-03-12T19:06:04.035Z,0
2016-03-12T19:07:04.053Z,0
2016-03-12T19:08:04.088Z,0
2016-03-12T19:09:04.091Z,0
2016-03-12T19:10:04.093Z,0
2016-03-12T19:11:04.111Z,0
2016-03-12T19:12:04.130Z,0
2016-03-12T19:13:04.164Z,0
2016-03-12T19:14:04.150Z,0
2016-03-12T19:15:04.153Z,0
2016-03-12T19:16:04.156Z,0
2016-03-12T19:17:04.191Z,0
2016-03-12T19:18:04.224Z,0
2016-03-12T19:19:04.196Z,0
2016-03-12T19:20:04.229Z,0
2016-03-12T19:21:04.216Z,0
2016-03-12T19:22:04.281Z,0
2016-03-12T19:23:04.253Z,0
2016-03-12T19:24:04.271Z,0
2016-03-12T19:25:04.290Z,0
2016-03-12T19:26:04.308Z,0
2016-03-12T19:27:04.310Z,0
2016-03-12T19:28:04.329Z,0
2016-03-12T19:29:04.176Z,0
2016-03-12T19:30:04.365Z,0
2016-03-12T19:31:04.353Z,0
2016-03-12T19:32:04.403Z,0
2016-03-12T19:33:04.389Z,0
2016-03-12T19:34:04.376Z,0
2016-03-12T19:35:04.598Z,0
2016-03-12T19:36:04.444Z,0
2016-03-12T19:37:04.416Z,0
2016-03-12T19:38:04.434Z,0
2016-03-12T19:39:04.467Z,0
2016-03-12T19:40:04.455Z,0
2016-03-12T19:41:04.473Z,0
2016-03-12T19:42:04.491Z,0
2016-03-12T19:43:04.494Z,0
2016-03-12T19:44:04.528Z,0
2016-03-12T19:45:04.516Z,0
2016-03-12T19:46:06.236Z,0
2016-03-12T19:47:04.536Z,0
2016-03-12T19:48:04.571Z,0
2016-03-12T19:49:04.573Z,0
2016-03-12T19:50:04.622Z,0
2016-03-12T19:51:04.579Z,0
2016-03-12T19:52:04.581Z,0
2016-03-12T19:53:04.615Z,0
2016-03-12T19:54:04.618Z,0
2016-03-12T19:55:04.635Z,0
2016-03-12T19:56:04.655Z,0
2016-03-12T19:57:04.658Z,0
2016-03-12T19:58:04.676Z,0
2016-03-12T19:59:04.679Z,0
2016-03-12T20:00:04.696Z,0
2016-03-12T20:01:04.684Z,0
2016-03-12T20:02:04.748Z,0
2016-03-12T20:03:04.736Z,0
2016-03-12T20:04:04.754Z,0
2016-03-12T20:05:04.742Z,0
2016-03-12T20:06:04.765Z,0
2016-03-12T20:07:04.783Z,0
2016-03-12T20:08:04.770Z,0
2016-03-12T20:09:04.804Z,0
2016-03-12T20:10:04.806Z,0
2016-03-12T20:11:04.825Z,0
2016-03-12T20:12:04.843Z,0
2016-03-12T20:13:04.846Z,0
2016-03-12T20:14:04.849Z,0
2016-03-12T20:15:04.867Z,0
2016-03-12T20:16:04.870Z,0
2016-03-12T20:17:04.763Z,0
2016-03-12T20:18:04.891Z,0
2016-03-12T20:19:04.924Z,0
2016-03-12T20:20:04.927Z,0
2016-03-12T20:21:04.960Z,0
2016-03-12T20:22:04.933Z,0
2016-03-12T20:23:04.951Z,0
2016-03-12T20:24:04.985Z,0
2016-03-12T20:25:04.972Z,0
2016-03-12T20:27:04.993Z,0
2016-03-12T20:28:05.012Z,0
2016-03-12T20:29:05.029Z,0
2016-03-12T20:30:05.048Z,0
2016-03-12T20:31:05.065Z,0
2016-03-12T20:32:05.084Z,0
2016-03-12T20:33:05.087Z,0
2016-03-12T20:34:05.089Z,0
2016-03-12T20:35:05.108Z,0
2016-03-12T20:36:04.954Z,0
2016-03-12T20:37:05.129Z,0
2016-03-12T20:38:05.163Z,0
2016-03-12T20:39:05.150Z,0
2016-03-12T20:40:05.136Z,0
2016-03-12T20:41:05.156Z,0
2016-03-12T20:42:05.190Z,0
2016-03-12T20:43:05.177Z,0
2016-03-12T20:44:05.195Z,0
2016-03-12T20:45:05.228Z,0
2016-03-12T20:46:05.231Z,0
2016-03-12T20:47:05.233Z,0
2016-03-12T20:48:05.268Z,0
2016-03-12T20:49:05.255Z,0
2016-03-12T20:50:05.288Z,0
2016-03-12T20:51:05.276Z,0
2016-03-12T20:52:05.295Z,0
2016-03-12T20:53:05.454Z,0
2016-03-12T20:54:05.316Z,0
2016-03-12T20:55:05.318Z,0
2016-03-12T20:56:05.321Z,0
2016-03-12T20:57:05.339Z,0
2016-03-12T20:58:05.342Z,0
2016-03-12T20:59:05.360Z,0
2016-03-12T21:00:05.394Z,4
2016-03-12T21:01:05.413Z,0
2016-03-12T21:02:05.415Z,0
2016-03-12T21:03:05.402Z,0
2016-03-12T21:04:05.420Z,0
2016-03-12T21:05:05.439Z,0
2016-03-12T21:06:05.301Z,0
2016-03-12T21:07:05.475Z,0
2016-03-12T21:08:05.463Z,0
2016-03-12T21:09:05.497Z,0
2016-03-12T21:10:05.499Z,0
2016-03-12T21:11:05.503Z,0
2016-03-12T21:12:05.505Z,0
2016-03-12T21:13:05.554Z,0
2016-03-12T21:14:05.525Z,0
2016-03-12T21:15:05.591Z,0
2016-03-12T21:16:05.562Z,0
2016-03-12T21:17:05.596Z,0
2016-03-12T21:18:05.599Z,0
2016-03-12T21:19:05.461Z,0
2016-03-12T21:20:05.620Z,0
2016-03-12T21:21:05.638Z,0
2016-03-12T21:22:05.657Z,0
2016-03-12T21:23:05.628Z,0
2016-03-12T21:24:05.693Z,0
2016-03-12T21:25:05.696Z,0
2016-03-12T21:26:05.682Z,0
2016-03-12T21:27:05.702Z,0
2016-03-12T21:28:05.704Z,0
2016-03-12T21:29:05.722Z,0
2016-03-12T21:30:05.740Z,0
2016-03-12T21:31:05.743Z,0
2016-03-12T21:32:05.777Z,0
2016-03-12T21:33:05.749Z,0
2016-03-12T21:34:05.767Z,0
2016-03-12T21:35:05.785Z,0
2016-03-12T21:36:05.772Z,0
2016-03-12T21:37:05.806Z,0
2016-03-12T21:38:05.809Z,0
2016-03-12T21:39:05.828Z,0
2016-03-12T21:40:05.830Z,0
2016-03-12T21:41:05.848Z,0
2016-03-12T21:42:05.867Z,0
2016-03-12T21:43:05.869Z,0
2016-03-12T21:44:05.887Z,0
2016-03-12T21:45:05.734Z,0
2016-03-12T21:46:05.909Z,0
2016-03-12T21:47:05.911Z,0
2016-03-12T21:48:05.773Z,0
2016-03-12T21:49:05.933Z,0
2016-03-12T21:50:05.982Z,0
2016-03-12T21:51:06.000Z,0
2016-03-12T21:52:05.972Z,0
2016-03-12T21:53:06.021Z,0
2016-03-12T21:54:05.993Z,0
2016-03-12T21:55:05.995Z,0
2016-03-12T21:56:06.013Z,0
2016-03-12T21:57:06.047Z,0
2016-03-12T21:58:06.050Z,0
2016-03-12T21:59:06.053Z,0
2016-03-12T22:00:06.040Z,0
2016-03-12T22:01:06.058Z,0
2016-03-12T22:02:06.076Z,0
2016-03-12T22:03:06.095Z,0
2016-03-12T22:04:06.112Z,0
2016-03-12T22:05:06.116Z,0
2016-03-12T22:06:06.140Z,0
2016-03-12T22:07:06.157Z,0
2016-03-12T22:08:06.160Z,0
2016-03-12T22:09:06.163Z,0
2016-03-12T22:10:06.181Z,0
2016-03-12T22:11:06.184Z,0
2016-03-12T22:12:06.170Z,0
2016-03-12T22:13:06.220Z,0
2016-03-12T22:14:06.207Z,0
2016-03-12T22:15:06.226Z,0
2016-03-12T22:16:06.244Z,0
2016-03-12T22:17:06.263Z,0
2016-03-12T22:18:06.266Z,0
2016-03-12T22:19:06.283Z,0
2016-03-12T22:20:06.271Z,0
2016-03-12T22:21:06.398Z,0
2016-03-12T22:22:06.322Z,0
2016-03-12T22:23:06.310Z,0
2016-03-12T22:24:06.344Z,0
2016-03-12T22:25:06.346Z,0
2016-03-12T22:26:06.271Z,0
2016-03-12T22:27:06.368Z,0
2016-03-12T22:28:06.386Z,0
2016-03-12T22:29:06.388Z,0
2016-03-12T22:30:06.407Z,0
2016-03-12T22:31:06.410Z,0
2016-03-12T22:32:06.459Z,0
2016-03-12T22:33:06.461Z,0
2016-03-12T22:34:06.465Z,0
2016-03-12T22:35:06.468Z,0
2016-03-12T22:36:06.470Z,0
2016-03-12T22:37:06.488Z,0
2016-03-12T22:38:06.506Z,0
2016-03-12T22:39:06.509Z,0
2016-03-12T22:40:06.527Z,0
2016-03-12T22:41:06.389Z,0
2016-03-12T22:42:06.564Z,0
2016-03-12T22:43:06.550Z,0
2016-03-12T22:44:06.538Z,0
2016-03-12T22:45:06.573Z,0
2016-03-12T22:46:06.575Z,0
2016-03-12T22:47:06.594Z,0
2016-03-12T22:48:06.596Z,0
2016-03-12T22:49:06.442Z,0
2016-03-12T22:50:06.632Z,0
2016-03-12T22:51:06.650Z,0
2016-03-12T22:52:06.653Z,0
2016-03-12T22:53:06.688Z,0
2016-03-12T22:54:06.738Z,0
2016-03-12T22:55:06.661Z,0
2016-03-12T22:56:06.243Z,0
2016-03-12T22:57:06.713Z,0
2016-03-12T22:58:06.716Z,0
2016-03-12T22:59:06.734Z,0
2016-03-12T23:00:06.737Z,0
2016-03-12T23:01:06.757Z,0
2016-03-12T23:02:06.759Z,0
2016-03-12T23:03:06.777Z,0
2016-03-12T23:04:06.764Z,0
2016-03-12T23:05:06.782Z,0
2016-03-12T23:06:06.801Z,0
2016-03-12T23:07:06.819Z,0
2016-03-12T23:08:06.868Z,0
2016-03-12T23:09:06.871Z,0
2016-03-12T23:10:06.858Z,0
2016-03-12T23:11:06.767Z,0
2016-03-12T23:12:06.864Z,0
2016-03-12T23:13:06.897Z,0
2016-03-12T23:14:06.916Z,0
2016-03-12T23:15:06.919Z,0
2016-03-12T23:16:06.905Z,0
2016-03-12T23:17:06.783Z,0
2016-03-12T23:18:06.942Z,0
2016-03-12T23:19:06.944Z,0
2016-03-12T23:20:06.963Z,0
2016-03-12T23:21:06.966Z,0
2016-03-12T23:22:07.000Z,0
2016-03-12T23:23:06.987Z,0
2016-03-12T23:24:07.005Z,0
2016-03-12T23:25:07.024Z,0
2016-03-12T23:26:07.027Z,0
2016-03-12T23:27:07.029Z,0
2016-03-12T23:28:07.046Z,0
2016-03-12T23:29:07.081Z,0
2016-03-12T23:30:07.075Z,0
2016-03-12T23:31:07.098Z,0
2016-03-12T23:32:07.060Z,0
2016-03-12T23:33:07.084Z,0
2016-03-12T23:34:07.092Z,0
2016-03-12T23:35:07.090Z,0
2016-03-12T23:36:07.089Z,0
2016-03-12T23:37:07.103Z,0
2016-03-12T23:38:07.133Z,0
2016-03-12T23:39:07.117Z,0
2016-03-12T23:40:07.119Z,0
2016-03-12T23:41:07.120Z,0
2016-03-12T23:42:07.137Z,0
2016-03-12T23:43:07.124Z,0
2016-03-12T23:44:07.172Z,0
2016-03-12T23:45:07.158Z,0
2016-03-12T23:46:07.177Z,0
2016-03-12T23:47:07.194Z,0
2016-03-12T23:48:07.196Z,0
2016-03-12T23:49:07.214Z,0
2016-03-12T23:50:07.232Z,0
2016-03-12T23:51:07.266Z,0
2016-03-12T23:52:07.237Z,0
2016-03-12T23:53:07.255Z,0
2016-03-12T23:54:07.257Z,0
2016-03-12T23:55:07.276Z,0
2016-03-12T23:56:07.309Z,0
2016-03-12T23:57:07.296Z,0
2016-03-12T23:58:07.456Z,0
2016-03-12T23:59:07.333Z,0
